Mount Boyce, Australia
Current Conditions -  °F | °C
As of 4:00 PM on Sunday 21 Dec 2014 (Local Time) from YSRI Reporting Station
Clear Clear  
Wind Chill: 86°   Ceiling: Unl
Heat Index: 87°   Visibility: 6mi
Dew Point: 64°   Wind: 14mph
Humidity: 48%   Direction: 80°E
Pressure: 29.91"   Gusts: NA
Location:  33.62°S, 150.27°E
Report Text: YSRI 210500Z AUTO 08012KT 9999 // NCD 30/18 Q1013
Loading
Personal Weather Stations






























Interactive Weather Map New forecast layout! Learn more

10-Day Weather Forecast

Advertisements
Track Severe Weather on mobile